EZY71LY EGKK-LFRS
Flight info
| Callsign | EZY71LY |
|---|---|
| Flight time | 0h 52m |
| Altitude | 27000 |
| Route | IMVUR N63 SAM M195 IBNID/N0451F290 M195 MARUK N621 LELNA DCT DOMOK UT260 UPALO UN862 GODAN |
| Aircraft | A320/M-SDE3FGHIRWY/LB1 |
Departure
| Time | 2026-05-04 20:46 |
|---|---|
| Airport | London Gatwick Airport (EGKK) |
Arrival
| Time | 2026-05-04 21:38 |
|---|---|
| Airport | Nantes Atlantique Airport (LFRS) |
| Time | Latitude | Longitude | Altitude | Speed | Heading |
|---|---|---|---|---|---|
| 2026-05-04 19:54 | 51.15583 | -0.17685 | 212 ft | 0 kts | 348° |
| 2026-05-04 19:55 | 51.15593 | -0.17627 | 215 ft | 0 kts | 347° |
| 2026-05-04 19:56 | 51.15590 | -0.17626 | 217 ft | 0 kts | 347° |
| 2026-05-04 20:22 | 51.15571 | -0.17618 | 215 ft | 3 kts | 341° |
| 2026-05-04 20:22 | 51.15549 | -0.17603 | 212 ft | 3 kts | 325° |
| 2026-05-04 20:22 | 51.15533 | -0.17579 | 216 ft | 3 kts | 282° |
| 2026-05-04 20:23 | 51.15532 | -0.17563 | 210 ft | 0 kts | 257° |
| 2026-05-04 20:25 | 51.15528 | -0.17588 | 205 ft | 3 kts | 257° |
| 2026-05-04 20:25 | 51.15523 | -0.17626 | 205 ft | 6 kts | 258° |
| 2026-05-04 20:25 | 51.15513 | -0.17702 | 208 ft | 11 kts | 257° |
| 2026-05-04 20:25 | 51.15493 | -0.17836 | 205 ft | 12 kts | 258° |
| 2026-05-04 20:26 | 51.15477 | -0.17962 | 208 ft | 13 kts | 258° |
| 2026-05-04 20:26 | 51.15458 | -0.18099 | 212 ft | 12 kts | 258° |
| 2026-05-04 20:26 | 51.15408 | -0.18157 | 205 ft | 9 kts | 168° |
| 2026-05-04 20:26 | 51.15348 | -0.18136 | 209 ft | 8 kts | 167° |
| 2026-05-04 20:27 | 51.15269 | -0.18107 | 212 ft | 14 kts | 166° |
| 2026-05-04 20:27 | 51.15204 | -0.18155 | 205 ft | 11 kts | 256° |
| 2026-05-04 20:27 | 51.15188 | -0.18269 | 205 ft | 10 kts | 257° |
| 2026-05-04 20:27 | 51.15181 | -0.18385 | 205 ft | 10 kts | 257° |
| 2026-05-04 20:28 | 51.15165 | -0.18488 | 207 ft | 9 kts | 256° |
| 2026-05-04 20:28 | 51.15149 | -0.18610 | 205 ft | 14 kts | 258° |
| 2026-05-04 20:28 | 51.15130 | -0.18746 | 206 ft | 12 kts | 257° |
| 2026-05-04 20:28 | 51.15110 | -0.18889 | 209 ft | 16 kts | 258° |
| 2026-05-04 20:29 | 51.15089 | -0.19051 | 211 ft | 14 kts | 258° |
| 2026-05-04 20:29 | 51.15069 | -0.19199 | 213 ft | 13 kts | 258° |
| 2026-05-04 20:29 | 51.15040 | -0.19413 | 208 ft | 24 kts | 258° |
| 2026-05-04 20:29 | 51.15012 | -0.19615 | 215 ft | 17 kts | 257° |
| 2026-05-04 20:30 | 51.14988 | -0.19786 | 208 ft | 15 kts | 258° |
| 2026-05-04 20:30 | 51.14967 | -0.19940 | 208 ft | 14 kts | 258° |
| 2026-05-04 20:30 | 51.14948 | -0.20079 | 206 ft | 12 kts | 258° |
| 2026-05-04 20:30 | 51.14930 | -0.20208 | 205 ft | 14 kts | 257° |
| 2026-05-04 20:31 | 51.14907 | -0.20374 | 207 ft | 15 kts | 257° |
| 2026-05-04 20:31 | 51.14886 | -0.20525 | 208 ft | 13 kts | 257° |
| 2026-05-04 20:31 | 51.14849 | -0.20640 | 207 ft | 11 kts | 212° |
| 2026-05-04 20:31 | 51.14780 | -0.20698 | 212 ft | 11 kts | 211° |
| 2026-05-04 20:32 | 51.14755 | -0.20792 | 211 ft | 9 kts | 258° |
| 2026-05-04 20:32 | 51.14745 | -0.20872 | 207 ft | 7 kts | 258° |
| 2026-05-04 20:32 | 51.14731 | -0.20972 | 207 ft | 11 kts | 257° |
| 2026-05-04 20:32 | 51.14714 | -0.21087 | 206 ft | 10 kts | 257° |
| 2026-05-04 20:33 | 51.14700 | -0.21189 | 205 ft | 9 kts | 258° |
| 2026-05-04 20:33 | 51.14697 | -0.21214 | 212 ft | 0 kts | 258° |
| 2026-05-04 20:37 | 51.14696 | -0.21224 | 209 ft | 5 kts | 258° |
| 2026-05-04 20:37 | 51.14688 | -0.21277 | 207 ft | 5 kts | 257° |
| 2026-05-04 20:37 | 51.14675 | -0.21322 | 213 ft | 5 kts | 228° |
| 2026-05-04 20:38 | 51.14633 | -0.21338 | 205 ft | 6 kts | 173° |
| 2026-05-04 20:38 | 51.14611 | -0.21329 | 205 ft | 0 kts | 166° |
| 2026-05-04 20:43 | 51.14573 | -0.21313 | 209 ft | 11 kts | 162° |
| 2026-05-04 20:44 | 51.14523 | -0.21234 | 212 ft | 10 kts | 114° |
| 2026-05-04 20:44 | 51.14521 | -0.21159 | 211 ft | 0 kts | 76° |
| 2026-05-04 20:45 | 51.14532 | -0.21086 | 207 ft | 31 kts | 77° |
| 2026-05-04 20:45 | 51.14633 | -0.20357 | 211 ft | 100 kts | 77° |
| 2026-05-04 20:45 | 51.14823 | -0.18983 | 215 ft | 152 kts | 78° |
| 2026-05-04 20:45 | 51.15050 | -0.17217 | 624 ft | 166 kts | 79° |
| 2026-05-04 20:46 | 51.15279 | -0.15359 | 1242 ft | 174 kts | 78° |
| 2026-05-04 20:46 | 51.15540 | -0.13442 | 1831 ft | 186 kts | 76° |
| 2026-05-04 20:46 | 51.15844 | -0.11310 | 2130 ft | 209 kts | 77° |
| 2026-05-04 20:46 | 51.16171 | -0.08998 | 2775 ft | 219 kts | 77° |
| 2026-05-04 20:47 | 51.16591 | -0.06664 | 3592 ft | 222 kts | 60° |
| 2026-05-04 20:47 | 51.17734 | -0.05032 | 4360 ft | 228 kts | 20° |
| 2026-05-04 20:47 | 51.19318 | -0.04851 | 5170 ft | 233 kts | 354° |
| 2026-05-04 20:47 | 51.20908 | -0.05349 | 5987 ft | 237 kts | 341° |
| 2026-05-04 20:48 | 51.22237 | -0.06891 | 6747 ft | 243 kts | 303° |
| 2026-05-04 20:48 | 51.22794 | -0.09487 | 7237 ft | 261 kts | 270° |
| 2026-05-04 20:48 | 51.22584 | -0.12466 | 7732 ft | 278 kts | 260° |
| 2026-05-04 20:48 | 51.22235 | -0.15482 | 8521 ft | 283 kts | 258° |
| 2026-05-04 20:49 | 51.21846 | -0.18575 | 9386 ft | 286 kts | 258° |
| 2026-05-04 20:49 | 51.21451 | -0.21702 | 10222 ft | 289 kts | 258° |
| 2026-05-04 20:49 | 51.21056 | -0.24872 | 10965 ft | 294 kts | 258° |
| 2026-05-04 20:49 | 51.20663 | -0.28094 | 11699 ft | 298 kts | 259° |
| 2026-05-04 20:50 | 51.20272 | -0.31368 | 12406 ft | 304 kts | 259° |
| 2026-05-04 20:50 | 51.19880 | -0.34707 | 13135 ft | 309 kts | 259° |
| 2026-05-04 20:50 | 51.19466 | -0.38098 | 13848 ft | 314 kts | 258° |
| 2026-05-04 20:50 | 51.19027 | -0.41517 | 14518 ft | 317 kts | 258° |
| 2026-05-04 20:51 | 51.18567 | -0.44979 | 15196 ft | 320 kts | 257° |
| 2026-05-04 20:51 | 51.18102 | -0.48455 | 15882 ft | 322 kts | 257° |
| 2026-05-04 20:51 | 51.17632 | -0.51966 | 16545 ft | 325 kts | 256° |
| 2026-05-04 20:51 | 51.16917 | -0.55419 | 16977 ft | 336 kts | 246° |
| 2026-05-04 20:52 | 51.15993 | -0.58944 | 17117 ft | 355 kts | 246° |
| 2026-05-04 20:52 | 51.14993 | -0.62665 | 17250 ft | 373 kts | 246° |
| 2026-05-04 20:52 | 51.13945 | -0.66539 | 17502 ft | 387 kts | 246° |
| 2026-05-04 20:52 | 51.12874 | -0.70499 | 18027 ft | 392 kts | 245° |
| 2026-05-04 20:53 | 51.11794 | -0.74499 | 18567 ft | 395 kts | 246° |
| 2026-05-04 20:53 | 51.10711 | -0.78523 | 19109 ft | 397 kts | 245° |
| 2026-05-04 20:53 | 51.09627 | -0.82565 | 19648 ft | 399 kts | 245° |
| 2026-05-04 20:53 | 51.08536 | -0.86636 | 20187 ft | 400 kts | 246° |
| 2026-05-04 20:54 | 51.07437 | -0.90719 | 20710 ft | 402 kts | 245° |
| 2026-05-04 20:54 | 51.06332 | -0.94814 | 21233 ft | 404 kts | 245° |
| 2026-05-04 20:54 | 51.05219 | -0.98943 | 21667 ft | 409 kts | 245° |
| 2026-05-04 20:54 | 51.04093 | -1.03122 | 22126 ft | 412 kts | 245° |
| 2026-05-04 20:55 | 51.02960 | -1.07313 | 22613 ft | 414 kts | 245° |
| 2026-05-04 20:55 | 51.01814 | -1.11524 | 23096 ft | 417 kts | 245° |
| 2026-05-04 20:55 | 51.00658 | -1.15759 | 23563 ft | 419 kts | 245° |
| 2026-05-04 20:55 | 50.99495 | -1.20016 | 23961 ft | 421 kts | 245° |
| 2026-05-04 20:56 | 50.98326 | -1.24284 | 24341 ft | 423 kts | 244° |
| 2026-05-04 20:56 | 50.97116 | -1.28545 | 24750 ft | 423 kts | 240° |
| 2026-05-04 20:56 | 50.95565 | -1.32484 | 25138 ft | 422 kts | 231° |
| 2026-05-04 20:56 | 50.93620 | -1.35949 | 25525 ft | 420 kts | 221° |
| 2026-05-04 20:57 | 50.91380 | -1.38819 | 25916 ft | 419 kts | 212° |
| 2026-05-04 20:57 | 50.88937 | -1.41360 | 26314 ft | 420 kts | 211° |
| 2026-05-04 20:57 | 50.86489 | -1.43903 | 26685 ft | 422 kts | 211° |
| 2026-05-04 20:57 | 50.84034 | -1.46453 | 26970 ft | 422 kts | 211° |
| 2026-05-04 20:58 | 50.81578 | -1.49006 | 27027 ft | 422 kts | 211° |
| 2026-05-04 20:58 | 50.79126 | -1.51555 | 27030 ft | 422 kts | 211° |
| 2026-05-04 20:58 | 50.77504 | -1.53239 | 27030 ft | 421 kts | 211° |
| 2026-05-04 20:58 | 50.75054 | -1.55778 | 27029 ft | 421 kts | 211° |
| 2026-05-04 20:59 | 50.72601 | -1.58313 | 27029 ft | 421 kts | 211° |
| 2026-05-04 20:59 | 50.70146 | -1.60846 | 27029 ft | 421 kts | 211° |
| 2026-05-04 20:59 | 50.67691 | -1.63378 | 27029 ft | 421 kts | 211° |
| 2026-05-04 20:59 | 50.65243 | -1.65902 | 27029 ft | 421 kts | 211° |
| 2026-05-04 21:00 | 50.62789 | -1.68429 | 27029 ft | 421 kts | 211° |
| 2026-05-04 21:00 | 50.60338 | -1.70945 | 27032 ft | 420 kts | 211° |
| 2026-05-04 21:00 | 50.57890 | -1.73450 | 27028 ft | 419 kts | 211° |
| 2026-05-04 21:00 | 50.55442 | -1.75950 | 27026 ft | 419 kts | 211° |
| 2026-05-04 21:01 | 50.52993 | -1.78445 | 27026 ft | 419 kts | 211° |
| 2026-05-04 21:01 | 50.50547 | -1.80938 | 27023 ft | 419 kts | 211° |
| 2026-05-04 21:01 | 50.48100 | -1.83430 | 27015 ft | 418 kts | 211° |
| 2026-05-04 21:01 | 50.45660 | -1.85917 | 27029 ft | 419 kts | 211° |
| 2026-05-04 21:02 | 50.43214 | -1.88414 | 27025 ft | 419 kts | 211° |
| 2026-05-04 21:02 | 50.40773 | -1.90899 | 27020 ft | 419 kts | 211° |
| 2026-05-04 21:02 | 50.38322 | -1.93389 | 27031 ft | 418 kts | 211° |
| 2026-05-04 21:02 | 50.35886 | -1.95859 | 27037 ft | 418 kts | 211° |
| 2026-05-04 21:03 | 50.33442 | -1.98331 | 27032 ft | 418 kts | 211° |
| 2026-05-04 21:03 | 50.31002 | -2.00792 | 27030 ft | 417 kts | 211° |
| 2026-05-04 21:03 | 50.28590 | -2.03222 | 27032 ft | 417 kts | 211° |
| 2026-05-04 21:03 | 50.26067 | -2.05429 | 27029 ft | 415 kts | 202° |
| 2026-05-04 21:04 | 50.23358 | -2.06953 | 27025 ft | 413 kts | 193° |
| 2026-05-04 21:04 | 50.20539 | -2.07765 | 27025 ft | 412 kts | 185° |
| 2026-05-04 21:04 | 50.17681 | -2.08138 | 27020 ft | 412 kts | 184° |
| 2026-05-04 21:04 | 50.14828 | -2.08502 | 27034 ft | 411 kts | 184° |
| 2026-05-04 21:05 | 50.11977 | -2.08868 | 27040 ft | 411 kts | 184° |
| 2026-05-04 21:05 | 50.09127 | -2.09237 | 27042 ft | 410 kts | 184° |
| 2026-05-04 21:05 | 50.06290 | -2.09608 | 27041 ft | 410 kts | 184° |
| 2026-05-04 21:05 | 50.03443 | -2.09982 | 27040 ft | 410 kts | 184° |
| 2026-05-04 21:06 | 50.00601 | -2.10355 | 27036 ft | 409 kts | 184° |
| 2026-05-04 21:06 | 49.97762 | -2.10700 | 27034 ft | 409 kts | 182° |
| 2026-05-04 21:06 | 49.94917 | -2.10864 | 27039 ft | 409 kts | 180° |
| 2026-05-04 21:06 | 49.92074 | -2.10865 | 27041 ft | 408 kts | 179° |
| 2026-05-04 21:07 | 49.89240 | -2.10780 | 27044 ft | 407 kts | 178° |
| 2026-05-04 21:07 | 49.86412 | -2.10673 | 27045 ft | 406 kts | 178° |
| 2026-05-04 21:07 | 49.83584 | -2.10581 | 27035 ft | 406 kts | 178° |
| 2026-05-04 21:07 | 49.80759 | -2.10523 | 27033 ft | 406 kts | 179° |
| 2026-05-04 21:08 | 49.77937 | -2.10494 | 27039 ft | 406 kts | 179° |
| 2026-05-04 21:08 | 49.75112 | -2.10485 | 27034 ft | 406 kts | 179° |
| 2026-05-04 21:08 | 49.72298 | -2.10209 | 27032 ft | 405 kts | 171° |
| 2026-05-04 21:08 | 49.69561 | -2.09247 | 27037 ft | 404 kts | 164° |
| 2026-05-04 21:09 | 49.66884 | -2.08063 | 27016 ft | 404 kts | 164° |
| 2026-05-04 21:09 | 49.64183 | -2.06869 | 27012 ft | 404 kts | 164° |
| 2026-05-04 21:09 | 49.61473 | -2.05672 | 27010 ft | 404 kts | 164° |
| 2026-05-04 21:09 | 49.58771 | -2.04483 | 27010 ft | 404 kts | 164° |
| 2026-05-04 21:10 | 49.56060 | -2.03297 | 27011 ft | 404 kts | 164° |
| 2026-05-04 21:10 | 49.53356 | -2.02118 | 27009 ft | 405 kts | 164° |
| 2026-05-04 21:10 | 49.50646 | -2.00938 | 27016 ft | 404 kts | 164° |
| 2026-05-04 21:10 | 49.47938 | -1.99760 | 27014 ft | 405 kts | 164° |
| 2026-05-04 21:11 | 49.45223 | -1.98571 | 27011 ft | 405 kts | 164° |
| 2026-05-04 21:11 | 49.42520 | -1.97388 | 27010 ft | 405 kts | 164° |
| 2026-05-04 21:11 | 49.39807 | -1.96208 | 27007 ft | 405 kts | 164° |
| 2026-05-04 21:11 | 49.37099 | -1.95031 | 27006 ft | 405 kts | 164° |
| 2026-05-04 21:12 | 49.34387 | -1.93855 | 27007 ft | 405 kts | 164° |
| 2026-05-04 21:12 | 49.31671 | -1.92677 | 27006 ft | 405 kts | 164° |
| 2026-05-04 21:12 | 49.28965 | -1.91506 | 27005 ft | 405 kts | 164° |
| 2026-05-04 21:12 | 49.26255 | -1.90336 | 27009 ft | 405 kts | 164° |
| 2026-05-04 21:13 | 49.23542 | -1.89164 | 27006 ft | 405 kts | 164° |
| 2026-05-04 21:13 | 49.20829 | -1.87989 | 27000 ft | 405 kts | 164° |
| 2026-05-04 21:13 | 49.18124 | -1.86815 | 27004 ft | 405 kts | 164° |
| 2026-05-04 21:13 | 49.15418 | -1.85642 | 27000 ft | 405 kts | 164° |
| 2026-05-04 21:14 | 49.12708 | -1.84474 | 27002 ft | 405 kts | 164° |
| 2026-05-04 21:14 | 49.10002 | -1.83315 | 27000 ft | 404 kts | 164° |
| 2026-05-04 21:14 | 49.07323 | -1.82174 | 26998 ft | 404 kts | 164° |
| 2026-05-04 21:14 | 49.04576 | -1.81005 | 27002 ft | 404 kts | 164° |
| 2026-05-04 21:15 | 49.01906 | -1.79868 | 27004 ft | 404 kts | 164° |
| 2026-05-04 21:15 | 48.99202 | -1.78708 | 27003 ft | 404 kts | 164° |
| 2026-05-04 21:15 | 48.96459 | -1.77525 | 27003 ft | 404 kts | 164° |
| 2026-05-04 21:15 | 48.93798 | -1.76379 | 27004 ft | 404 kts | 164° |
| 2026-05-04 21:16 | 48.91057 | -1.75425 | 26997 ft | 404 kts | 171° |
| 2026-05-04 21:16 | 48.88252 | -1.75154 | 26992 ft | 405 kts | 178° |
| 2026-05-04 21:16 | 48.85427 | -1.75142 | 26993 ft | 405 kts | 178° |
| 2026-05-04 21:16 | 48.82612 | -1.75116 | 26992 ft | 405 kts | 178° |
| 2026-05-04 21:17 | 48.79795 | -1.75079 | 26984 ft | 405 kts | 178° |
| 2026-05-04 21:17 | 48.76976 | -1.75037 | 26982 ft | 405 kts | 178° |
| 2026-05-04 21:17 | 48.74155 | -1.74997 | 26983 ft | 405 kts | 178° |
| 2026-05-04 21:17 | 48.71336 | -1.74955 | 26981 ft | 405 kts | 178° |
| 2026-05-04 21:18 | 48.68516 | -1.74912 | 26982 ft | 405 kts | 178° |
| 2026-05-04 21:18 | 48.65690 | -1.74874 | 26985 ft | 406 kts | 178° |
| 2026-05-04 21:18 | 48.62870 | -1.74843 | 26990 ft | 406 kts | 178° |
| 2026-05-04 21:18 | 48.60049 | -1.74813 | 26984 ft | 406 kts | 178° |
| 2026-05-04 21:19 | 48.57220 | -1.74780 | 26983 ft | 406 kts | 178° |
| 2026-05-04 21:19 | 48.54401 | -1.74746 | 26982 ft | 406 kts | 178° |
| 2026-05-04 21:19 | 48.51576 | -1.74711 | 26979 ft | 406 kts | 178° |
| 2026-05-04 21:19 | 48.48753 | -1.74675 | 26980 ft | 406 kts | 178° |
| 2026-05-04 21:20 | 48.45921 | -1.74643 | 26977 ft | 406 kts | 178° |
| 2026-05-04 21:20 | 48.43090 | -1.74615 | 26975 ft | 406 kts | 178° |
| 2026-05-04 21:20 | 48.40268 | -1.74582 | 26984 ft | 406 kts | 178° |
| 2026-05-04 21:20 | 48.37436 | -1.74543 | 26987 ft | 406 kts | 178° |
| 2026-05-04 21:21 | 48.34607 | -1.74505 | 26985 ft | 407 kts | 178° |
| 2026-05-04 21:21 | 48.31811 | -1.74471 | 26986 ft | 407 kts | 178° |
| 2026-05-04 21:21 | 48.28982 | -1.74438 | 26986 ft | 407 kts | 178° |
| 2026-05-04 21:21 | 48.26148 | -1.74404 | 26989 ft | 407 kts | 178° |
| 2026-05-04 21:22 | 48.23308 | -1.74371 | 26590 ft | 408 kts | 178° |
| 2026-05-04 21:22 | 48.20461 | -1.74339 | 26086 ft | 409 kts | 178° |
| 2026-05-04 21:22 | 48.17615 | -1.74307 | 25583 ft | 409 kts | 178° |
| 2026-05-04 21:22 | 48.14769 | -1.74272 | 25088 ft | 408 kts | 178° |
| 2026-05-04 21:23 | 48.11932 | -1.74236 | 24601 ft | 407 kts | 178° |
| 2026-05-04 21:23 | 48.09093 | -1.74217 | 24120 ft | 407 kts | 180° |
| 2026-05-04 21:23 | 48.06282 | -1.74698 | 23649 ft | 408 kts | 190° |
| 2026-05-04 21:23 | 48.03549 | -1.75896 | 23108 ft | 409 kts | 197° |
| 2026-05-04 21:24 | 48.00867 | -1.77288 | 22558 ft | 407 kts | 197° |
| 2026-05-04 21:24 | 47.98196 | -1.78665 | 22017 ft | 404 kts | 197° |
| 2026-05-04 21:24 | 47.95548 | -1.80023 | 21480 ft | 401 kts | 197° |
| 2026-05-04 21:24 | 47.92915 | -1.81372 | 20956 ft | 399 kts | 197° |
| 2026-05-04 21:25 | 47.90301 | -1.82710 | 20443 ft | 396 kts | 197° |
| 2026-05-04 21:25 | 47.87706 | -1.84038 | 19937 ft | 393 kts | 197° |
| 2026-05-04 21:25 | 47.85121 | -1.85357 | 19439 ft | 391 kts | 197° |
| 2026-05-04 21:25 | 47.82558 | -1.86661 | 18954 ft | 388 kts | 197° |
| 2026-05-04 21:26 | 47.80005 | -1.87960 | 18470 ft | 386 kts | 197° |
| 2026-05-04 21:26 | 47.77473 | -1.89249 | 17949 ft | 385 kts | 197° |
| 2026-05-04 21:26 | 47.74975 | -1.90522 | 17430 ft | 383 kts | 197° |
| 2026-05-04 21:26 | 47.72462 | -1.91801 | 16890 ft | 381 kts | 197° |
| 2026-05-04 21:27 | 47.69960 | -1.93077 | 16366 ft | 379 kts | 197° |
| 2026-05-04 21:27 | 47.67448 | -1.94231 | 15832 ft | 376 kts | 191° |
| 2026-05-04 21:27 | 47.64871 | -1.94625 | 15275 ft | 372 kts | 178° |
| 2026-05-04 21:27 | 47.62322 | -1.94166 | 14733 ft | 369 kts | 165° |
| 2026-05-04 21:28 | 47.59919 | -1.92900 | 14199 ft | 366 kts | 153° |
| 2026-05-04 21:28 | 47.57642 | -1.91220 | 13662 ft | 364 kts | 153° |
| 2026-05-04 21:28 | 47.55364 | -1.89555 | 13067 ft | 363 kts | 153° |
| 2026-05-04 21:28 | 47.53095 | -1.87913 | 12483 ft | 361 kts | 153° |
| 2026-05-04 21:29 | 47.50845 | -1.86291 | 11924 ft | 358 kts | 153° |
| 2026-05-04 21:29 | 47.48619 | -1.84689 | 11360 ft | 355 kts | 153° |
| 2026-05-04 21:29 | 47.46423 | -1.83108 | 10800 ft | 341 kts | 153° |
| 2026-05-04 21:29 | 47.44414 | -1.81429 | 10273 ft | 325 kts | 141° |
| 2026-05-04 21:30 | 47.42889 | -1.79123 | 9733 ft | 311 kts | 124° |
| 2026-05-04 21:30 | 47.41918 | -1.76343 | 9161 ft | 300 kts | 110° |
| 2026-05-04 21:30 | 47.41200 | -1.73500 | 8575 ft | 291 kts | 110° |
| 2026-05-04 21:30 | 47.40493 | -1.70739 | 8014 ft | 284 kts | 110° |
| 2026-05-04 21:31 | 47.39115 | -1.65424 | 6915 ft | 271 kts | 110° |
| 2026-05-04 21:31 | 47.38447 | -1.62850 | 6370 ft | 266 kts | 110° |
| 2026-05-04 21:31 | 47.37792 | -1.60332 | 5766 ft | 261 kts | 110° |
| 2026-05-04 21:32 | 47.37144 | -1.57838 | 5178 ft | 258 kts | 110° |
| 2026-05-04 21:32 | 47.36505 | -1.55391 | 4595 ft | 254 kts | 110° |
| 2026-05-04 21:32 | 47.35874 | -1.52968 | 3997 ft | 251 kts | 109° |
| 2026-05-04 21:32 | 47.35251 | -1.50575 | 3422 ft | 248 kts | 109° |
| 2026-05-04 21:33 | 47.34642 | -1.48240 | 3039 ft | 237 kts | 109° |
| 2026-05-04 21:33 | 47.34046 | -1.46091 | 2988 ft | 215 kts | 119° |
| 2026-05-04 21:33 | 47.33096 | -1.44539 | 3004 ft | 202 kts | 146° |
| 2026-05-04 21:33 | 47.31811 | -1.43791 | 3008 ft | 197 kts | 173° |
| 2026-05-04 21:34 | 47.30468 | -1.43961 | 2999 ft | 194 kts | 200° |
| 2026-05-04 21:34 | 47.29332 | -1.44936 | 3002 ft | 192 kts | 222° |
| 2026-05-04 21:34 | 47.28309 | -1.46214 | 3005 ft | 192 kts | 222° |
| 2026-05-04 21:34 | 47.27291 | -1.47478 | 2985 ft | 187 kts | 222° |
| 2026-05-04 21:35 | 47.26298 | -1.48709 | 2681 ft | 187 kts | 223° |
| 2026-05-04 21:35 | 47.25301 | -1.49938 | 2407 ft | 186 kts | 223° |
| 2026-05-04 21:35 | 47.24314 | -1.51154 | 2154 ft | 180 kts | 223° |
| 2026-05-04 21:35 | 47.23384 | -1.52298 | 1920 ft | 165 kts | 222° |
| 2026-05-04 21:36 | 47.22547 | -1.53324 | 1688 ft | 150 kts | 224° |
| 2026-05-04 21:36 | 47.21768 | -1.54281 | 1452 ft | 144 kts | 224° |
| 2026-05-04 21:36 | 47.21007 | -1.55220 | 1268 ft | 141 kts | 223° |
| 2026-05-04 21:36 | 47.20295 | -1.56194 | 1110 ft | 138 kts | 227° |
| 2026-05-04 21:37 | 47.19604 | -1.57181 | 1049 ft | 138 kts | 227° |
| 2026-05-04 21:37 | 47.18897 | -1.58150 | 878 ft | 138 kts | 223° |
| 2026-05-04 21:37 | 47.18114 | -1.58973 | 647 ft | 139 kts | 211° |
| 2026-05-04 21:37 | 47.17247 | -1.59617 | 364 ft | 138 kts | 209° |
| 2026-05-04 21:38 | 47.16392 | -1.60253 | 148 ft | 138 kts | 208° |
| 2026-05-04 21:38 | 47.15601 | -1.60861 | 100 ft | 109 kts | 208° |
| 2026-05-04 21:38 | 47.15085 | -1.61255 | 96 ft | 59 kts | 207° |
| 2026-05-04 21:38 | 47.14905 | -1.61381 | 98 ft | 1 kts | 203° |
| 2026-05-04 21:39 | 47.14895 | -1.61387 | 98 ft | 4 kts | 203° |
| 2026-05-04 21:39 | 47.14874 | -1.61399 | 99 ft | 4 kts | 197° |
| 2026-05-04 21:39 | 47.14846 | -1.61395 | 99 ft | 7 kts | 164° |
| 2026-05-04 21:39 | 47.14820 | -1.61345 | 99 ft | 5 kts | 110° |
| 2026-05-04 21:40 | 47.14821 | -1.61287 | 99 ft | 10 kts | 73° |
| 2026-05-04 21:40 | 47.14846 | -1.61177 | 99 ft | 11 kts | 60° |
| 2026-05-04 21:40 | 47.14900 | -1.61123 | 99 ft | 9 kts | 27° |
| 2026-05-04 21:40 | 47.14954 | -1.61083 | 100 ft | 9 kts | 27° |
| 2026-05-04 21:41 | 47.15014 | -1.61037 | 97 ft | 9 kts | 27° |
| 2026-05-04 21:41 | 47.15066 | -1.60997 | 99 ft | 7 kts | 27° |
| 2026-05-04 21:41 | 47.15111 | -1.60962 | 102 ft | 8 kts | 28° |
| 2026-05-04 21:41 | 47.15165 | -1.60920 | 100 ft | 10 kts | 27° |
| 2026-05-04 21:42 | 47.15237 | -1.60865 | 101 ft | 13 kts | 27° |
| 2026-05-04 21:42 | 47.15318 | -1.60804 | 102 ft | 13 kts | 26° |
| 2026-05-04 21:42 | 47.15392 | -1.60750 | 103 ft | 11 kts | 26° |
| 2026-05-04 21:42 | 47.15466 | -1.60694 | 102 ft | 12 kts | 28° |
| 2026-05-04 21:43 | 47.15533 | -1.60642 | 103 ft | 10 kts | 27° |
| 2026-05-04 21:43 | 47.15590 | -1.60599 | 103 ft | 10 kts | 27° |
| 2026-05-04 21:43 | 47.15659 | -1.60546 | 100 ft | 12 kts | 27° |
| 2026-05-04 21:43 | 47.15709 | -1.60507 | 101 ft | 11 kts | 30° |
| 2026-05-04 21:44 | 47.15717 | -1.60428 | 101 ft | 7 kts | 111° |
| 2026-05-04 21:44 | 47.15687 | -1.60377 | 101 ft | 6 kts | 141° |
| 2026-05-04 21:44 | 47.15654 | -1.60338 | 100 ft | 6 kts | 141° |
| 2026-05-04 21:44 | 47.15622 | -1.60299 | 101 ft | 6 kts | 137° |
| 2026-05-04 21:45 | 47.15624 | -1.60266 | 101 ft | 2 kts | 43° |
| 2026-05-04 21:45 | 47.15646 | -1.60251 | 101 ft | 4 kts | 27° |
| 2026-05-04 21:45 | 47.15666 | -1.60231 | 100 ft | 4 kts | 34° |
| 2026-05-04 21:45 | 47.15681 | -1.60217 | 100 ft | 0 kts | 33° |